Cornwall Center, Pennsylvania
Current Conditions -  °F | °C
As of 7:53 PM on Wednesday 17 Dec 2014 (Local Time) from KLNS Reporting Station
Overcast Overcast  
Wind Chill: 29°   Ceiling: 4400
Heat Index: 38°   Visibility: 10mi
Dew Point: 22°   Wind: 16mph
Humidity: 53%   Direction: 310°NW
Pressure: 30"   Gusts: 25mph
Location:  40.2693°N, 76.4009°W
Report Text: KLNS 180053Z 31014G22KT 10SM OVC044 03/M06 A3000 RMK AO2 PK WND 32027/0037 SLP161 T00331056
Loading
Personal Weather Stations






























Interactive Weather Map New forecast layout! Learn more

10-Day Weather Forecast

Advertisements
Track Severe Weather on mobile